Time;durP1;ratioP1;P1;durP2;ratioP2;P2;SDS_P1;SDS_P2;PMS_P1;PMS_P2;Temp;Humidity;BMP_temperature;BMP_pressure;BME280_temperature;BME280_humidity;BME280_pressure;Samples;Min_cycle;Max_cycle;Signal;HPM_P1;HPM_P2
2021/05/07 00:02:19;;;;;;;7.05;1.58;;;;;;;24.03;41.37;98930.12;4484570;32;33978;-62
2021/05/07 00:04:50;;;;;;;7.35;1.50;;;;;;;24.02;41.28;98934.75;4484777;32;33562;-62
2021/05/07 00:07:17;;;;;;;4.22;1.17;;;;;;;24.03;41.21;98930.97;4484247;32;33875;-62
2021/05/07 00:09:44;;;;;;;5.75;1.35;;;;;;;24.02;41.30;98937.50;4484561;32;33812;-61
2021/05/07 00:12:11;;;;;;;5.72;1.62;;;;;;;24.01;41.37;98924.91;4484526;32;33381;-62
2021/05/07 00:14:38;;;;;;;6.18;1.45;;;;;;;24.02;41.44;98928.50;4484348;32;33643;-61
2021/05/07 00:17:05;;;;;;;14.30;1.62;;;;;;;24.03;41.38;98925.50;4484311;31;33723;-62
2021/05/07 00:19:34;;;;;;;8.48;1.62;;;;;;;24.02;41.38;98923.88;4484465;32;34660;-62
2021/05/07 00:22:01;;;;;;;7.10;1.77;;;;;;;24.02;41.37;98921.13;4484403;32;33150;-62
2021/05/07 00:24:28;;;;;;;4.80;1.52;;;;;;;24.01;41.45;98907.75;4484450;32;33533;-62
2021/05/07 00:26:56;;;;;;;4.80;1.08;;;;;;;24.01;41.45;98916.75;4484525;32;33826;-62
2021/05/07 00:29:23;;;;;;;4.62;1.50;;;;;;;24.00;41.48;98912.38;4484004;32;34897;-62
2021/05/07 00:31:51;;;;;;;5.00;1.40;;;;;;;24.00;41.56;98917.00;4484342;32;34468;-62
2021/05/07 00:34:18;;;;;;;4.68;1.12;;;;;;;23.99;41.66;98910.72;4484302;32;33714;-62
2021/05/07 00:36:45;;;;;;;6.90;1.50;;;;;;;23.99;41.65;98913.47;4484279;32;33446;-61
2021/05/07 00:39:13;;;;;;;4.10;1.27;;;;;;;23.99;41.55;98897.09;4484257;32;33967;-62
2021/05/07 00:41:41;;;;;;;4.75;1.35;;;;;;;23.99;41.48;98902.56;4484255;32;34116;-61
2021/05/07 00:44:08;;;;;;;8.82;1.30;;;;;;;23.99;41.51;98904.47;4484102;32;33846;-62
2021/05/07 00:46:37;;;;;;;7.32;1.52;;;;;;;23.99;41.48;98899.84;4484184;32;35271;-61
2021/05/07 00:49:05;;;;;;;12.20;1.80;;;;;;;23.98;41.43;98897.38;4484565;32;33850;-62
2021/05/07 00:51:33;;;;;;;5.20;1.60;;;;;;;23.99;41.39;98886.22;4470284;32;33467;-62
2021/05/07 00:54:00;;;;;;;4.70;1.30;;;;;;;23.98;41.58;98884.56;4484075;32;34559;-62
2021/05/07 00:56:27;;;;;;;3.37;1.10;;;;;;;23.98;41.59;98891.91;4482936;32;34884;-62
2021/05/07 00:58:55;;;;;;;5.72;1.20;;;;;;;23.98;41.55;98894.66;4482557;32;33781;-62
2021/05/07 01:01:22;;;;;;;6.00;1.45;;;;;;;23.96;41.56;98883.97;4484230;32;34084;-62
2021/05/07 01:03:49;;;;;;;4.55;1.67;;;;;;;23.97;41.57;98892.97;4484025;32;33750;-62
2021/05/07 01:06:16;;;;;;;8.90;1.30;;;;;;;23.98;41.56;98891.91;4482050;32;33802;-62
2021/05/07 01:08:44;;;;;;;5.55;1.45;;;;;;;23.97;41.57;98885.66;4484046;32;33747;-62
2021/05/07 01:11:11;;;;;;;6.70;2.08;;;;;;;23.97;41.53;98890.25;4470312;32;34040;-62
2021/05/07 01:13:39;;;;;;;3.33;1.05;;;;;;;23.97;41.54;98891.09;4484168;32;33674;-62
2021/05/07 01:16:09;;;;;;;3.75;1.40;;;;;;;23.96;41.54;98880.44;4484424;32;34363;-62
2021/05/07 01:18:36;;;;;;;4.93;1.62;;;;;;;23.95;41.52;98876.88;4482885;32;34689;-62
2021/05/07 01:21:04;;;;;;;5.55;1.40;;;;;;;23.95;41.49;98874.16;4482198;32;34206;-62
2021/05/07 01:23:31;;;;;;;7.53;1.25;;;;;;;23.95;41.54;98874.16;4484197;32;33605;-62
2021/05/07 01:25:59;;;;;;;4.40;1.20;;;;;;;23.94;41.62;98872.53;4484237;32;34382;-62
2021/05/07 01:28:27;;;;;;;8.38;1.27;;;;;;;23.95;41.73;98873.34;4483794;32;34129;-62
2021/05/07 01:30:54;;;;;;;6.28;1.33;;;;;;;23.93;41.69;98877.16;4484143;32;33314;-62
2021/05/07 01:33:21;;;;;;;4.15;1.20;;;;;;;23.94;41.71;98877.97;4483836;32;33742;-62
2021/05/07 01:35:49;;;;;;;5.53;1.25;;;;;;;23.92;41.66;98885.56;4483750;32;33776;-61
2021/05/07 01:38:17;;;;;;;7.10;1.40;;;;;;;23.92;41.72;98875.50;4483842;32;33814;-62
2021/05/07 01:40:48;;;;;;;6.03;1.20;;;;;;;23.92;41.74;98882.81;4484078;32;33316;-62
2021/05/07 01:43:17;;;;;;;3.85;1.23;;;;;;;23.93;41.69;98876.31;4483877;32;34574;-61
2021/05/07 01:45:45;;;;;;;4.25;1.40;;;;;;;23.91;41.70;98882.00;4482596;32;34672;-61
2021/05/07 01:48:13;;;;;;;3.53;1.35;;;;;;;23.92;41.64;98875.50;4484053;32;34572;-62
2021/05/07 01:50:45;;;;;;;3.70;1.50;;;;;;;23.91;41.63;98883.91;4483546;32;34153;-61
2021/05/07 01:53:13;;;;;;;3.97;1.30;;;;;;;23.92;41.62;98871.94;4484012;32;34578;-62
2021/05/07 01:55:48;;;;;;;5.62;1.67;;;;;;;23.91;41.63;98871.09;4483422;32;33754;-62
2021/05/07 01:58:17;;;;;;;4.62;1.20;;;;;;;23.92;41.65;98874.66;4483658;32;33820;-62
2021/05/07 02:00:44;;;;;;;5.47;1.58;;;;;;;23.90;41.52;98872.19;4483769;32;33446;-62
2021/05/07 02:03:12;;;;;;;8.45;1.27;;;;;;;23.90;41.67;98871.38;4483386;32;33787;-62
2021/05/07 02:05:40;;;;;;;3.58;1.10;;;;;;;23.90;41.79;98879.53;4483761;32;34873;-62
2021/05/07 02:08:07;;;;;;;5.03;1.40;;;;;;;23.89;41.66;98884.16;4483733;32;34036;-62
2021/05/07 02:10:35;;;;;;;3.90;1.17;;;;;;;23.89;41.71;98873.28;4483593;32;33411;-62
2021/05/07 02:13:06;;;;;;;4.35;1.20;;;;;;;23.89;41.74;98875.19;4483313;32;34552;-61
2021/05/07 02:15:34;;;;;;;4.40;1.00;;;;;;;23.87;41.75;98867.25;4483540;32;33831;-62
2021/05/07 02:18:02;;;;;;;3.80;1.48;;;;;;;23.89;41.66;98883.34;4483431;32;33749;-62
2021/05/07 02:20:30;;;;;;;4.43;1.15;;;;;;;23.88;41.64;98885.25;4485321;32;33230;-62
2021/05/07 02:22:57;;;;;;;7.65;1.30;;;;;;;23.88;41.69;98870.81;4485582;32;33762;-61
2021/05/07 02:25:25;;;;;;;2.87;1.15;;;;;;;23.88;41.69;98871.63;4485088;32;33959;-62
2021/05/07 02:27:53;;;;;;;4.78;1.27;;;;;;;23.87;41.76;98850.06;4485177;32;33950;-62
2021/05/07 02:30:30;;;;;;;3.05;1.20;;;;;;;23.87;41.68;98852.78;4485121;32;33917;-62
2021/05/07 02:32:57;;;;;;;3.60;1.20;;;;;;;23.87;41.75;98858.25;4484951;32;33726;-62
2021/05/07 02:35:25;;;;;;;3.87;1.23;;;;;;;23.87;41.79;98864.50;4485436;32;33760;-62
2021/05/07 02:37:52;;;;;;;2.83;1.30;;;;;;;23.87;41.85;98866.41;4484875;32;33771;-62
2021/05/07 02:40:20;;;;;;;4.87;1.27;;;;;;;23.86;41.86;98865.59;4485467;32;34223;-62
2021/05/07 02:42:47;;;;;;;3.60;1.10;;;;;;;23.86;41.87;98860.16;4485487;32;34664;-62
2021/05/07 02:45:15;;;;;;;4.10;1.30;;;;;;;23.86;41.80;98862.88;4485002;32;33880;-61
2021/05/07 02:47:43;;;;;;;5.62;1.58;;;;;;;23.86;41.84;98864.78;4485099;32;33533;-62
2021/05/07 02:50:11;;;;;;;4.40;1.15;;;;;;;23.85;42.08;98874.03;4485303;32;33316;-61
2021/05/07 02:52:40;;;;;;;7.43;1.23;;;;;;;23.85;42.11;98869.41;4485107;32;34786;-62
2021/05/07 02:55:09;;;;;;;3.15;1.00;;;;;;;23.85;41.98;98874.03;4485023;32;34009;-62
2021/05/07 02:57:36;;;;;;;5.62;1.27;;;;;;;23.85;42.05;98874.03;4484105;32;34493;-62
2021/05/07 03:00:05;;;;;;;4.95;1.10;;;;;;;23.86;42.00;98865.59;4484622;32;33192;-61
2021/05/07 03:02:32;;;;;;;7.18;1.40;;;;;;;23.85;41.98;98854.97;4484815;32;33650;-62
2021/05/07 03:04:59;;;;;;;3.37;1.27;;;;;;;23.85;41.92;98846.78;4469365;32;33910;-61
2021/05/07 03:07:26;;;;;;;3.50;1.02;;;;;;;23.84;41.91;98837.78;4469144;32;33744;-61
2021/05/07 03:09:54;;;;;;;8.18;1.45;;;;;;;23.84;41.87;98832.34;4469125;32;34123;-62
2021/05/07 03:12:21;;;;;;;6.20;1.00;;;;;;;23.84;41.91;98828.81;4469346;32;33742;-62
2021/05/07 03:14:49;;;;;;;3.33;1.30;;;;;;;23.83;41.85;98835.34;4469545;32;33523;-61
2021/05/07 03:17:16;;;;;;;2.65;1.08;;;;;;;23.83;41.80;98832.59;4484746;32;33835;-62
2021/05/07 03:19:44;;;;;;;7.25;1.40;;;;;;;23.83;41.84;98829.88;4484663;32;33227;-62
2021/05/07 03:22:11;;;;;;;5.75;1.30;;;;;;;23.82;41.97;98830.94;4484562;32;33855;-62
2021/05/07 03:24:38;;;;;;;5.90;1.30;;;;;;;23.83;42.02;98830.72;4485119;32;33902;-62
2021/05/07 03:27:05;;;;;;;4.87;1.10;;;;;;;23.83;42.04;98824.44;4484722;32;33832;-62
2021/05/07 03:29:32;;;;;;;3.62;0.80;;;;;;;23.82;41.98;98826.31;4484417;32;33362;-62
2021/05/07 03:31:59;;;;;;;4.22;1.60;;;;;;;23.83;42.01;98824.44;4484754;32;33664;-62
2021/05/07 03:34:27;;;;;;;5.15;1.20;;;;;;;23.82;41.94;98820.03;4484765;32;33926;-62
2021/05/07 03:36:54;;;;;;;4.30;1.02;;;;;;;23.81;41.95;98826.56;4484188;32;33952;-62
2021/05/07 03:39:21;;;;;;;3.70;1.10;;;;;;;23.81;41.93;98824.66;4484663;32;33088;-62
2021/05/07 03:41:48;;;;;;;4.35;1.00;;;;;;;23.81;41.93;98829.28;4484688;32;33678;-62
2021/05/07 03:44:15;;;;;;;3.87;1.25;;;;;;;23.81;41.91;98821.13;4484549;32;33822;-62
2021/05/07 03:46:43;;;;;;;4.80;1.30;;;;;;;23.80;41.85;98820.31;4484635;32;34604;-62
2021/05/07 03:49:10;;;;;;;10.23;1.20;;;;;;;23.81;41.78;98821.13;4483776;32;33347;-61
2021/05/07 03:51:37;;;;;;;4.10;0.95;;;;;;;23.79;41.98;98828.75;4477601;32;33649;-61
2021/05/07 03:54:05;;;;;;;4.57;1.30;;;;;;;23.80;42.04;98819.47;4478158;32;33599;-61
2021/05/07 03:56:32;;;;;;;6.05;1.30;;;;;;;23.80;42.04;98835.81;4469256;32;33500;-61
2021/05/07 03:58:59;;;;;;;2.53;0.98;;;;;;;23.81;41.99;98834.75;4473379;32;33264;-61
2021/05/07 04:01:26;;;;;;;2.70;1.12;;;;;;;23.80;41.98;98838.56;4484524;32;33751;-61
2021/05/07 04:03:53;;;;;;;6.93;1.20;;;;;;;23.80;41.98;98836.66;4484729;32;33851;-61
2021/05/07 04:06:21;;;;;;;3.45;0.90;;;;;;;23.79;41.97;98850.53;4483862;32;33609;-62
2021/05/07 04:09:04;;;;;;;3.83;1.17;;;;;;;23.80;41.95;98854.91;4479072;32;33283;-61
2021/05/07 04:11:36;;;;;;;5.93;1.23;;;;;;;23.79;41.96;98864.97;4468854;32;33570;-62
2021/05/07 04:14:03;;;;;;;7.25;1.20;;;;;;;23.80;41.84;98865.78;4482032;32;35008;-62
2021/05/07 04:16:30;;;;;;;7.50;1.20;;;;;;;23.79;41.84;98870.41;4484416;32;34362;-62
2021/05/07 04:18:57;;;;;;;4.97;1.15;;;;;;;23.80;41.95;98871.25;4483107;32;32919;-62
2021/05/07 04:21:24;;;;;;;4.75;1.08;;;;;;;23.78;42.01;98867.91;4484496;32;34741;-62
2021/05/07 04:23:52;;;;;;;3.58;1.10;;;;;;;23.78;41.99;98878.81;4484294;32;33775;-61
2021/05/07 04:26:19;;;;;;;4.28;1.27;;;;;;;23.78;41.94;98879.66;4470334;32;33825;-62
2021/05/07 04:28:47;;;;;;;4.03;1.20;;;;;;;23.77;41.93;98877.19;4468796;32;33200;-61
2021/05/07 04:31:15;;;;;;;5.03;1.20;;;;;;;23.77;41.89;98888.06;4468718;32;33528;-61
2021/05/07 04:33:42;;;;;;;1.92;1.00;;;;;;;23.76;41.86;98894.59;4468348;32;33576;-62
2021/05/07 04:36:09;;;;;;;3.45;1.42;;;;;;;23.76;41.90;98898.16;4468819;32;34669;-62
2021/05/07 04:38:39;;;;;;;4.50;1.25;;;;;;;23.77;42.02;98901.69;4468741;32;33231;-62
2021/05/07 04:41:06;;;;;;;3.53;1.00;;;;;;;23.77;41.91;98902.50;4467859;32;33769;-62
2021/05/07 04:43:33;;;;;;;5.70;1.10;;;;;;;23.77;42.01;98905.25;4468677;32;33951;-65
2021/05/07 04:46:00;;;;;;;7.93;1.05;;;;;;;23.76;42.07;98903.59;4468630;32;34501;-62
2021/05/07 04:48:29;;;;;;;10.35;1.30;;;;;;;23.77;41.95;98926.22;4468365;32;34302;-62
2021/05/07 04:50:56;;;;;;;6.22;1.40;;;;;;;23.75;41.65;98923.75;4477615;32;33467;-61
2021/05/07 04:53:23;;;;;;;21.05;1.87;;;;;;;23.76;41.64;98925.38;4473820;32;33696;-61
2021/05/07 04:55:50;;;;;;;11.95;1.42;;;;;;;23.77;41.58;98926.22;4483987;32;33966;-61
2021/05/07 04:58:17;;;;;;;8.15;1.33;;;;;;;23.75;41.66;98925.66;4476008;32;33438;-61
2021/05/07 05:00:44;;;;;;;9.13;1.45;;;;;;;23.74;41.63;98922.09;4468520;32;34725;-61
2021/05/07 05:03:18;;;;;;;4.68;1.25;;;;;;;23.73;41.55;98920.44;4484298;32;34755;-61
2021/05/07 05:05:45;;;;;;;8.57;1.62;;;;;;;23.73;41.49;98919.59;4484114;32;34746;-61
2021/05/07 05:08:12;;;;;;;10.77;1.73;;;;;;;23.72;41.50;98920.69;4484125;32;33148;-61
2021/05/07 05:10:39;;;;;;;5.00;1.30;;;;;;;23.72;41.49;98932.41;4473286;32;33858;-61
2021/05/07 05:13:06;;;;;;;9.50;1.58;;;;;;;23.70;41.48;98929.13;4468734;32;33811;-61
2021/05/07 05:15:42;;;;;;;6.72;1.90;;;;;;;23.70;41.47;98931.84;4468173;32;34025;-61
2021/05/07 05:18:09;;;;;;;12.70;2.58;;;;;;;23.68;41.46;98940.25;4468286;32;34456;-61
2021/05/07 05:20:36;;;;;;;10.40;1.90;;;;;;;23.68;41.46;98934.78;4468255;32;33884;-62
2021/05/07 05:23:03;;;;;;;31.98;3.60;;;;;;;23.68;41.39;98932.06;4468105;32;34870;-60
2021/05/07 05:25:31;;;;;;;28.30;2.90;;;;;;;23.66;41.57;98923.34;4468126;32;34595;-61
2021/05/07 05:27:58;;;;;;;31.55;3.28;;;;;;;23.67;41.46;98929.59;4468472;32;33328;-62
2021/05/07 05:30:26;;;;;;;26.73;3.12;;;;;;;23.67;41.40;98932.31;4468044;32;33805;-62
2021/05/07 05:32:54;;;;;;;13.40;2.58;;;;;;;23.66;41.26;98926.06;4465421;32;87301;-62
2021/05/07 05:35:21;;;;;;;30.60;3.10;;;;;;;23.67;41.31;98927.69;4468187;32;33766;-61
2021/05/07 05:37:48;;;;;;;20.67;2.15;;;;;;;23.67;41.41;98924.16;4467897;32;33529;-61
2021/05/07 05:40:15;;;;;;;18.08;2.45;;;;;;;23.66;41.41;98931.50;4468219;32;33920;-62
2021/05/07 05:42:43;;;;;;;14.68;2.03;;;;;;;23.65;41.40;98929.88;4468113;32;33823;-62
2021/05/07 05:45:10;;;;;;;15.70;2.80;;;;;;;23.67;41.41;98926.87;4467109;32;34015;-61
2021/05/07 05:47:38;;;;;;;22.40;2.92;;;;;;;23.66;41.40;98934.22;4480452;32;33226;-62
2021/05/07 05:50:05;;;;;;;14.68;2.05;;;;;;;23.66;41.42;98936.94;4483744;32;33842;-62
2021/05/07 05:52:32;;;;;;;14.82;2.28;;;;;;;23.64;41.42;98944.56;4483281;32;33839;-61
2021/05/07 05:55:00;;;;;;;20.98;2.40;;;;;;;23.64;41.38;98936.38;4482813;32;33765;-61
2021/05/07 05:57:27;;;;;;;14.98;3.20;;;;;;;23.63;41.36;98942.84;4483688;32;32967;-62
2021/05/07 05:59:54;;;;;;;16.10;2.65;;;;;;;23.63;41.35;98942.03;4482051;32;34887;-61
2021/05/07 06:02:21;;;;;;;15.60;3.00;;;;;;;23.62;41.37;98935.75;4472710;32;33779;-61
2021/05/07 06:04:49;;;;;;;18.15;2.75;;;;;;;23.62;41.37;98933.03;4467990;32;33498;-61
2021/05/07 06:07:16;;;;;;;10.73;1.92;;;;;;;23.62;41.33;98938.50;4467730;32;33343;-62
2021/05/07 06:09:43;;;;;;;15.52;2.20;;;;;;;23.61;41.35;98938.75;4467734;32;34858;-62
2021/05/07 06:12:11;;;;;;;14.27;2.05;;;;;;;23.61;41.34;98936.84;4467821;32;33740;-62
2021/05/07 06:14:38;;;;;;;12.45;1.73;;;;;;;23.61;41.30;98950.47;4467587;32;34702;-61
2021/05/07 06:17:08;;;;;;;11.03;2.20;;;;;;;23.60;41.30;98962.44;4468018;32;33546;-61
2021/05/07 06:19:36;;;;;;;9.20;2.15;;;;;;;23.60;41.28;98976.06;4467573;32;33878;-61
2021/05/07 06:22:03;;;;;;;9.32;1.67;;;;;;;23.59;41.29;98988.00;4467481;32;34573;-62
2021/05/07 06:24:31;;;;;;;12.55;2.08;;;;;;;23.59;41.27;98998.88;4470890;32;33776;-62
2021/05/07 06:26:58;;;;;;;7.80;1.87;;;;;;;23.60;41.26;99000.56;4481584;32;34552;-61
2021/05/07 06:29:26;;;;;;;14.38;2.05;;;;;;;23.59;41.27;98998.88;4483041;32;33812;-62
2021/05/07 06:31:53;;;;;;;13.45;2.35;;;;;;;23.58;41.27;98989.06;4483050;32;33923;-62
2021/05/07 06:34:21;;;;;;;8.48;1.80;;;;;;;23.59;41.29;98976.28;4482290;32;33488;-61
2021/05/07 06:36:48;;;;;;;9.00;2.20;;;;;;;23.57;41.27;98976.53;4467103;32;32945;-61
2021/05/07 06:39:15;;;;;;;18.95;3.30;;;;;;;23.58;41.26;98982.81;4467226;32;33789;-62
2021/05/07 06:41:43;;;;;;;10.25;1.70;;;;;;;23.58;41.27;98985.53;4467344;32;33464;-61
2021/05/07 06:44:10;;;;;;;9.32;1.98;;;;;;;23.57;41.29;98979.25;4479654;32;33515;-62
2021/05/07 06:46:37;;;;;;;9.40;2.00;;;;;;;23.56;41.30;98976.78;4482450;32;34283;-61
2021/05/07 06:49:04;;;;;;;20.50;2.42;;;;;;;23.56;41.27;98980.34;4478287;31;34861;-61
2021/05/07 06:51:33;;;;;;;11.48;2.05;;;;;;;23.56;41.15;98974.88;4481674;31;35444;-61
2021/05/07 06:54:00;;;;;;;22.65;3.05;;;;;;;23.57;41.02;98964.81;4475071;31;33890;-61
2021/05/07 06:56:28;;;;;;;20.85;3.37;;;;;;;23.57;41.06;98962.09;4478533;32;34349;-61
2021/05/07 06:58:55;;;;;;;14.00;2.40;;;;;;;23.56;41.18;98976.78;4479269;32;33810;-61
2021/05/07 07:01:22;;;;;;;22.98;3.78;;;;;;;23.58;41.21;98991.78;4476967;32;33801;-61
2021/05/07 07:03:49;;;;;;;16.60;2.90;;;;;;;23.59;41.21;99011.69;4482316;32;32986;-61
2021/05/07 07:06:16;;;;;;;16.42;3.05;;;;;;;23.58;41.10;98999.12;4471246;32;33036;-62
2021/05/07 07:08:45;;;;;;;16.80;2.83;;;;;;;23.59;40.99;99003.50;4482768;31;34867;-61
2021/05/07 07:11:13;;;;;;;23.42;3.55;;;;;;;23.59;40.96;98992.63;4470407;32;33873;-62
2021/05/07 07:13:40;;;;;;;25.45;3.08;;;;;;;23.61;41.02;98994.03;4482321;31;33629;-62
2021/05/07 07:16:07;;;;;;;26.80;3.70;;;;;;;23.64;41.04;98992.72;4484181;31;32305;-61
2021/05/07 07:18:34;;;;;;;20.75;3.15;;;;;;;23.62;41.19;99001.13;4481799;31;33857;-61
2021/05/07 07:21:02;;;;;;;22.15;3.92;;;;;;;23.62;41.18;98990.22;4478539;31;33498;-61
2021/05/07 07:23:29;;;;;;;26.48;3.83;;;;;;;23.63;41.23;98999.22;4481320;31;33820;-61
2021/05/07 07:25:56;;;;;;;22.10;3.35;;;;;;;23.64;41.18;98998.19;4474499;31;32341;-61
2021/05/07 07:28:23;;;;;;;26.83;4.28;;;;;;;23.65;41.23;99002.56;4482750;31;33709;-61
2021/05/07 07:30:51;;;;;;;22.60;3.65;;;;;;;23.68;41.24;99005.59;4483582;31;33855;-62
2021/05/07 07:33:18;;;;;;;21.75;3.47;;;;;;;23.68;41.25;99012.94;4482514;31;33837;-61
2021/05/07 07:35:45;;;;;;;27.62;4.43;;;;;;;23.67;41.24;99012.13;4484006;32;33300;-62
2021/05/07 07:38:12;;;;;;;21.70;3.53;;;;;;;23.67;41.20;99011.31;4482833;31;33919;-61
2021/05/07 07:40:39;;;;;;;14.65;3.03;;;;;;;23.68;41.14;99005.59;4484420;32;34965;-61
2021/05/07 07:43:06;;;;;;;16.20;3.35;;;;;;;23.71;41.12;99011.66;4482962;31;33826;-61
2021/05/07 07:45:34;;;;;;;22.70;3.95;;;;;;;23.71;41.15;99022.53;4484528;32;33366;-61
2021/05/07 07:48:01;;;;;;;15.50;3.28;;;;;;;23.72;41.17;99016.84;4483939;31;33827;-61
2021/05/07 07:50:28;;;;;;;16.58;3.37;;;;;;;23.70;41.26;99015.44;4484143;32;33775;-61
2021/05/07 07:52:55;;;;;;;16.35;2.65;;;;;;;23.72;41.22;99021.47;4483025;31;33962;-61
2021/05/07 07:55:23;;;;;;;22.00;3.10;;;;;;;23.71;41.26;99015.19;4484623;32;33570;-61
2021/05/07 07:57:50;;;;;;;17.37;3.12;;;;;;;23.71;41.36;99008.91;4483280;31;33859;-61
2021/05/07 08:00:17;;;;;;;14.48;3.17;;;;;;;23.71;41.29;99019.81;4482098;31;33930;-61
2021/05/07 08:02:45;;;;;;;20.85;3.30;;;;;;;23.71;41.32;99023.38;4483712;31;33643;-61
2021/05/07 08:05:12;;;;;;;27.77;3.42;;;;;;;23.70;41.35;99016.28;4484300;32;33306;-60
2021/05/07 08:07:39;;;;;;;17.52;3.22;;;;;;;23.73;41.29;99017.66;4483422;31;33814;-61
2021/05/07 08:10:08;;;;;;;13.98;2.42;;;;;;;23.73;41.35;99014.94;4484315;32;34653;-61
2021/05/07 08:12:35;;;;;;;18.10;3.62;;;;;;;23.71;41.42;99015.19;4482818;31;34555;-61
2021/05/07 08:15:03;;;;;;;22.95;3.60;;;;;;;23.72;41.44;99013.28;4480340;31;33368;-61
2021/05/07 08:17:31;;;;;;;20.30;3.40;;;;;;;23.72;41.48;99011.38;4484281;32;33965;-61
2021/05/07 08:19:59;;;;;;;15.07;3.37;;;;;;;23.74;41.52;99013.88;4483560;31;33963;-61
2021/05/07 08:22:26;;;;;;;19.80;3.00;;;;;;;23.73;41.56;99013.03;4482789;31;34772;-61
2021/05/07 08:24:54;;;;;;;15.57;3.25;;;;;;;23.74;41.50;99016.59;4483688;31;33347;-61
2021/05/07 08:27:21;;;;;;;11.50;3.15;;;;;;;23.74;41.66;99013.88;4482962;31;33755;-61
2021/05/07 08:29:49;;;;;;;13.70;3.20;;;;;;;23.74;41.66;99008.44;4483773;31;33848;-62
2021/05/07 08:32:17;;;;;;;14.48;3.62;;;;;;;23.72;41.71;99011.38;4481166;31;33737;-61
2021/05/07 08:34:45;;;;;;;19.95;3.22;;;;;;;23.75;41.67;99013.62;4483300;31;34169;-61
2021/05/07 08:37:12;;;;;;;12.68;3.08;;;;;;;23.75;41.69;99012.81;4484283;32;34782;-61
2021/05/07 08:39:39;;;;;;;12.55;2.95;;;;;;;23.76;41.65;99015.28;4483461;31;34075;-62
2021/05/07 08:42:10;;;;;;;21.33;3.65;;;;;;;23.75;41.79;99013.62;4483406;31;33856;-62
2021/05/07 08:44:37;;;;;;;17.00;3.25;;;;;;;23.75;41.91;99012.81;4483437;32;34142;-61
2021/05/07 08:47:05;;;;;;;18.70;4.03;;;;;;;23.77;41.86;99018.81;4483599;31;33759;-61
2021/05/07 08:49:34;;;;;;;16.40;3.45;;;;;;;23.77;41.81;99018.81;4477549;32;33941;-61
2021/05/07 08:52:01;;;;;;;15.38;3.37;;;;;;;23.77;41.75;99011.47;4475312;31;33818;-61
2021/05/07 08:54:28;;;;;;;18.25;3.10;;;;;;;23.77;41.83;99016.91;4483320;31;33299;-61
2021/05/07 08:56:56;;;;;;;14.32;3.83;;;;;;;23.79;41.75;99019.41;4481985;31;34444;-61
2021/05/07 08:59:23;;;;;;;15.07;3.15;;;;;;;23.78;41.79;99020.47;4484144;32;34428;-61
2021/05/07 09:01:50;;;;;;;16.12;3.08;;;;;;;23.78;41.84;99024.03;4482651;31;33505;-61
2021/05/07 09:04:19;;;;;;;17.77;3.33;;;;;;;23.78;41.87;99023.19;4483230;31;33519;-61
2021/05/07 09:06:52;;;;;;;12.82;3.10;;;;;;;23.76;41.97;99023.44;4482972;31;34734;-61
2021/05/07 09:09:28;;;;;;;12.07;2.70;;;;;;;23.76;41.92;99026.16;4483915;32;33811;-61
2021/05/07 09:12:00;;;;;;;13.52;3.17;;;;;;;23.77;41.90;99029.72;4482808;31;33764;-61
2021/05/07 09:14:28;;;;;;;14.00;2.80;;;;;;;23.78;41.85;99031.34;4481163;31;33166;-61
2021/05/07 09:17:02;;;;;;;11.75;2.55;;;;;;;23.79;41.89;99033.03;4468127;32;34403;-62
2021/05/07 09:19:33;;;;;;;16.00;2.90;;;;;;;23.78;41.93;99040.37;4468801;31;33813;-61
2021/05/07 09:22:01;;;;;;;15.45;3.22;;;;;;;23.77;41.97;99037.88;4483097;31;34757;-61
2021/05/07 09:24:35;;;;;;;16.83;3.30;;;;;;;23.78;42.00;99029.50;4472627;31;33328;-61
2021/05/07 09:27:05;;;;;;;16.65;2.87;;;;;;;23.80;41.97;99037.41;4474813;31;33753;-61
2021/05/07 09:29:32;;;;;;;13.70;3.37;;;;;;;23.79;41.96;99033.03;4483905;32;33944;-62
2021/05/07 09:32:03;;;;;;;16.87;3.17;;;;;;;23.77;42.07;99036.00;4482557;31;34097;-61
2021/05/07 09:34:35;;;;;;;15.77;3.33;;;;;;;23.78;41.98;99034.94;4482993;31;34316;-61
2021/05/07 09:37:14;;;;;;;14.00;2.90;;;;;;;23.79;42.04;99039.31;4482993;31;33561;-62
2021/05/07 09:39:42;;;;;;;9.10;3.20;;;;;;;23.79;42.06;99036.59;4483253;31;33992;-62
2021/05/07 09:42:22;;;;;;;15.18;2.80;;;;;;;23.77;42.03;99040.59;4483368;32;33696;-62
2021/05/07 09:44:49;;;;;;;11.32;3.03;;;;;;;23.78;42.02;99028.62;4473438;31;33278;-61
2021/05/07 09:47:17;;;;;;;19.92;3.03;;;;;;;23.78;42.07;99017.75;4473115;31;33600;-62
2021/05/07 09:49:45;;;;;;;15.55;2.87;;;;;;;23.77;42.06;99011.47;4483642;32;33856;-61
2021/05/07 09:52:12;;;;;;;18.70;4.30;;;;;;;23.78;42.08;99007.69;4483148;31;34376;-61
2021/05/07 09:54:48;;;;;;;16.05;2.95;;;;;;;23.79;41.99;98994.91;4482563;31;33319;-61
2021/05/07 09:57:16;;;;;;;14.30;3.30;;;;;;;23.80;42.07;98981.03;4480669;31;34785;-62
2021/05/07 09:59:43;;;;;;;13.85;2.97;;;;;;;23.79;42.07;98992.19;4469418;32;34700;-61
2021/05/07 10:02:11;;;;;;;12.15;2.80;;;;;;;23.78;42.10;98994.06;4469770;31;33748;-61
2021/05/07 10:04:39;;;;;;;9.40;2.80;;;;;;;23.78;42.09;98993.22;4467893;32;33077;-61
2021/05/07 10:07:07;;;;;;;10.65;3.17;;;;;;;23.79;42.06;98993.00;4468632;31;33679;-61
2021/05/07 10:09:35;;;;;;;13.15;3.25;;;;;;;23.80;42.07;98986.47;4483357;32;33935;-61
2021/05/07 10:12:04;;;;;;;12.40;2.70;;;;;;;23.80;42.11;99002.00;4477182;31;34343;-61
2021/05/07 10:14:31;;;;;;;14.55;3.08;;;;;;;23.80;42.09;98999.25;4481508;31;34077;-61
2021/05/07 10:17:18;;;;;;;10.75;3.03;;;;;;;23.80;42.11;99008.25;4472218;31;34669;-61
2021/05/07 10:19:47;;;;;;;10.52;2.53;;;;;;;23.82;42.15;99017.00;4482438;31;34769;-61
2021/05/07 10:22:27;;;;;;;12.40;2.80;;;;;;;23.81;42.15;99025.44;4483140;32;34710;-60
2021/05/07 10:24:55;;;;;;;11.90;2.87;;;;;;;23.80;42.13;99026.50;4477432;31;33551;-61
2021/05/07 10:27:22;;;;;;;13.65;3.12;;;;;;;23.81;42.20;99020.81;4469909;31;33764;-60
2021/05/07 10:29:55;;;;;;;13.07;2.87;;;;;;;23.80;42.22;99021.06;4467185;32;34036;-61
2021/05/07 10:32:35;;;;;;;13.55;3.15;;;;;;;23.80;42.19;99024.59;4480476;31;33779;-61
2021/05/07 10:35:04;;;;;;;12.00;2.50;;;;;;;23.82;42.16;99022.44;4482803;32;34168;-62
2021/05/07 10:37:39;;;;;;;12.05;3.00;;;;;;;23.80;42.22;99008.25;4481670;31;33834;-62
2021/05/07 10:40:07;;;;;;;10.45;2.72;;;;;;;23.81;42.26;99009.09;4484077;32;34591;-61
2021/05/07 10:42:35;;;;;;;9.50;2.72;;;;;;;23.80;42.22;99023.78;4484295;31;33840;-61
2021/05/07 10:45:02;;;;;;;10.45;2.60;;;;;;;23.79;42.29;99035.75;4470760;32;34057;-61
2021/05/07 10:47:36;;;;;;;8.32;2.40;;;;;;;23.77;42.33;99041.44;4483700;31;34719;-61
2021/05/07 10:50:14;;;;;;;13.13;3.25;;;;;;;23.79;42.22;99041.22;4474951;32;33418;-61
2021/05/07 10:52:41;;;;;;;9.52;2.37;;;;;;;23.79;42.22;99039.31;4476509;31;33866;-61
2021/05/07 10:55:09;;;;;;;10.90;2.83;;;;;;;23.78;42.17;99042.25;4485134;32;33493;-61
2021/05/07 10:57:39;;;;;;;12.37;2.72;;;;;;;23.79;42.10;99049.38;4483658;31;33825;-61
2021/05/07 11:00:15;;;;;;;12.60;2.67;;;;;;;23.79;42.14;99060.28;4484811;32;34872;-61
2021/05/07 11:02:52;;;;;;;9.27;2.55;;;;;;;23.79;42.11;99060.28;4484136;31;34524;-61
2021/05/07 11:05:48;;;;;;;9.73;3.20;;;;;;;23.81;42.16;99077.19;4484930;32;33422;-61
2021/05/07 11:08:16;;;;;;;13.15;2.60;;;;;;;23.81;42.20;99080.72;4480098;31;33556;-61
2021/05/07 11:10:43;;;;;;;6.95;2.37;;;;;;;23.79;42.17;99080.16;4485009;32;33581;-61
2021/05/07 11:13:10;;;;;;;11.35;2.90;;;;;;;23.78;42.20;99086.69;4484047;31;34942;-61
2021/05/07 11:15:37;;;;;;;10.50;2.80;;;;;;;23.78;42.26;99074.94;4483950;31;33446;-61
2021/05/07 11:18:05;;;;;;;9.25;2.15;;;;;;;23.78;42.26;99075.81;4483729;31;33602;-61
2021/05/07 11:20:36;;;;;;;8.60;2.60;;;;;;;23.79;42.25;99076.63;4483862;31;33857;-61
2021/05/07 11:23:06;;;;;;;8.80;2.50;;;;;;;23.79;42.30;99042.03;4474959;32;34252;-61
2021/05/07 11:25:33;;;;;;;9.88;2.50;;;;;;;23.80;42.20;99046.41;4472871;31;33045;-61
2021/05/07 11:28:17;;;;;;;11.45;2.97;;;;;;;23.79;42.25;99049.38;4483623;31;34595;-63
2021/05/07 11:30:53;;;;;;;8.80;2.55;;;;;;;23.79;42.37;99063.00;4484821;32;33839;-62
2021/05/07 11:33:25;;;;;;;11.82;2.78;;;;;;;23.79;42.30;99060.28;4484842;32;33894;-62
2021/05/07 11:36:21;;;;;;;12.85;2.62;;;;;;;23.79;42.29;99054.81;4484023;31;33333;-62